Terminal Aerodrome Forecast
Issued by NWS Medford, OR

Home | Current Version | Previous Version | Text Only | Print | Product List | Glossary On
Versions: 1 2 3 4 5 6 7 8 9 10 11 12 13 14 15 16 17 18 19 20 21 22 23 24 25 26 27 28 29 30
000
FTUS46 KMFR 190543
TAFMFR
TAF
KMFR 190543Z 1906/2006 05004KT P6SM -RA SCT040 OVC080
     FM190800 04003KT 4SM -RA BR BKN020 OVC040
     FM191000 05004KT 3SM -RA BR OVC012
     FM191800 03004KT 4SM RA BR OVC015
     FM200400 03004KT 5SM -RA BR OVC015=

USA.gov is the U.S. government's official web portal to all federal, state and local government web resources and services.